Have a Safe July 4th! 

Flight Track Log - Related Links

Times and Time Zones

All times are in EDT time to prevent confusion due to time zone crossing. See the CJT574 flight status page for this flight to view local times or setup timezone preferences in your user account.

Time Position Orientation Groundspeed Altitude Reporting Facility
EDT Latitude Longitude Course Direction KTS MPH feet Rate Location/Type
Thu 02:04:47 AM 49.9833 -97.2000 23° Northeast 180 207 4,100  Level Winnipeg Center
Thu 02:05:47 AM 50.0167 -97.1500 44° Northeast 230 265 5,200 1,650 Climbing Winnipeg Center
Thu 02:06:47 AM 49.9500 -97.0667 141° Southeast 280 322 7,400 2,350 Climbing Winnipeg Center
Thu 02:07:47 AM 49.8833 -97.0167 154° Southeast 300 345 9,900 1,850 Climbing Winnipeg Center
Thu 02:08:47 AM 49.8167 -96.9333 141° Southeast 370 426 11,100 1,650 Climbing Winnipeg Center
Thu 02:09:00 AM 49.7221 -96.1818 105° East  Level FlightAware Approximate
Thu 02:09:47 AM 49.7667 -96.7833 117° Southeast 370 426 13,200  Level Winnipeg Center
Thu 02:10:47 AM 49.7167 -96.6333 117° Southeast 410 472 15,100 1,850 Climbing Winnipeg Center
Thu 02:11:47 AM 49.6667 -96.4500 113° Southeast 430 495 16,900 2,150 Climbing Winnipeg Center
Thu 02:12:47 AM 49.6333 -96.3000 109° East 440 506 19,400 2,150 Climbing Winnipeg Center
Thu 02:13:47 AM 49.5667 -96.1167 119° Southeast 450 518 21,200 1,650 Climbing Winnipeg Center
Thu 02:14:47 AM 49.5167 -95.9333 113° Southeast 450 518 22,700 1,600 Climbing Winnipeg Center
Thu 02:15:47 AM 49.4667 -95.7333 111° Southeast 470 541 24,400 1,650 Climbing Winnipeg Center
Thu 02:16:47 AM 49.4167 -95.5500 113° Southeast 470 541 26,000 1,400 Climbing Winnipeg Center
Thu 02:17:47 AM 49.3500 -95.3500 117° Southeast 490 564 27,200 1,050 Climbing Winnipeg Center
Thu 02:18:47 AM 49.3000 -95.1667 113° Southeast 500 575 28,100 950 Climbing Winnipeg Center
Thu 02:19:47 AM 49.2500 -94.9667 111° Southeast 510 587 29,100 950 Climbing Winnipeg Center
Thu 02:20:47 AM 49.1667 -94.7667 122° Southeast 530 610 30,000 950 Climbing Winnipeg Center
Thu 02:21:47 AM 49.1167 -94.5667 111° Southeast 530 610 31,000 1,200 Climbing Winnipeg Center
Thu 02:22:47 AM 49.0500 -94.3667 117° Southeast 530 610 32,400 1,200 Climbing Winnipeg Center
Thu 02:23:47 AM 48.9833 -94.1667 117° Southeast 530 610 33,400 900 Climbing Winnipeg Center
Thu 02:24:47 AM 48.9333 -93.9333 108° East 520 598 34,200 650 Climbing Winnipeg Center
Thu 02:25:47 AM 48.8667 -93.7667 121° Southeast 530 610 34,700 450 Climbing Winnipeg Center
Thu 02:26:47 AM 48.7833 -93.5667 122° Southeast 530 610 35,100 150 Climbing Winnipeg Center
Thu 02:27:47 AM 48.7333 -93.3667 111° Southeast 530 610 35,000 -54 Descending Winnipeg Center
Thu 02:28:39 AM 48.7133 -93.2406 103° East 527 606 35,000  Level Minneapolis Center
Thu 02:29:40 AM 48.6497 -93.0453 116° Southeast 522 601 35,000  Level Minneapolis Center
Thu 02:30:40 AM 48.5856 -92.8475 116° Southeast 522 601 35,000  Level Minneapolis Center
Thu 02:31:40 AM 48.5219 -92.6497 116° Southeast 523 602 35,000  Level Minneapolis Center
Thu 02:32:41 AM 48.4578 -92.4556 116° Southeast 520 598 35,000  Level Minneapolis Center
Thu 02:33:41 AM 48.3797 -92.2214 117° Southeast 521 600 35,000  Level Minneapolis Center
Thu 02:34:42 AM 48.3144 -92.0267 117° Southeast 522 601 35,000  Level Minneapolis Center
Thu 02:35:42 AM 48.2494 -91.8311 116° Southeast 523 602 35,000  Level Minneapolis Center
Thu 02:36:43 AM 48.1825 -91.6375 117° Southeast 522 601 35,000  Level Minneapolis Center
Thu 02:37:43 AM 48.1167 -91.4447 117° Southeast 521 600 35,000  Level Minneapolis Center
Thu 02:38:44 AM 48.0497 -91.2522 117° Southeast 521 600 35,000  Level Minneapolis Center
Thu 02:39:44 AM 47.9825 -91.0592 117° Southeast 523 602 35,000  Level Minneapolis Center
Thu 02:40:45 AM 47.9153 -90.8667 117° Southeast 523 602 35,000  Level Minneapolis Center
Thu 02:41:45 AM 47.8483 -90.6744 117° Southeast 524 603 35,000  Level Minneapolis Center
Thu 02:42:46 AM 47.7800 -90.4839 118° Southeast 523 602 35,000  Level Minneapolis Center
Thu 02:43:46 AM 47.7194 -90.3144 118° Southeast 522 601 35,000  Level Minneapolis Center
Thu 02:44:47 AM 47.6508 -90.1269 118° Southeast 518 596 35,000  Level Minneapolis Center
Thu 02:45:47 AM 47.5828 -89.9397 118° Southeast 517 595 35,000  Level Minneapolis Center
Thu 02:46:47 AM 47.5144 -89.7519 118° Southeast 517 595 35,000  Level Minneapolis Center
Thu 02:47:48 AM 47.4442 -89.5650 119° Southeast 519 597 35,000  Level Minneapolis Center
Thu 02:48:48 AM 47.3614 -89.3400 118° Southeast 519 597 35,000  Level Minneapolis Center
Thu 02:49:49 AM 47.2903 -89.1542 119° Southeast 519 597 35,000  Level Minneapolis Center
Thu 02:50:49 AM 47.2192 -88.9661 119° Southeast 522 601 35,000  Level Minneapolis Center
Thu 02:51:50 AM 47.1492 -88.7806 119° Southeast 520 598 35,000  Level Minneapolis Center
Thu 02:52:50 AM 47.0772 -88.5944 120° Southeast 522 601 35,000  Level Minneapolis Center
Thu 02:53:51 AM 47.0061 -88.4092 119° Southeast 521 600 35,000  Level Minneapolis Center
Thu 02:54:52 AM 46.9347 -88.2264 120° Southeast 517 595 35,000  Level Minneapolis Center
Thu 02:55:52 AM 46.8642 -88.0433 119° Southeast 516 594 35,000  Level Minneapolis Center
Thu 02:56:53 AM 46.7928 -87.8608 120° Southeast 516 594 35,000  Level Minneapolis Center
Thu 02:57:53 AM 46.7200 -87.6778 120° Southeast 518 596 35,000  Level Minneapolis Center
Thu 02:58:53 AM 46.6458 -87.4994 121° Southeast 517 595 35,000  Level Minneapolis Center
Thu 02:59:54 AM 46.5750 -87.3183 120° Southeast 515 593 35,000 -50 Level Minneapolis Center
Thu 03:00:54 AM 46.5042 -87.1425 120° Southeast 508 585 34,900  Descending Minneapolis Center
Thu 03:01:54 AM 46.4336 -86.9703 121° Southeast 500 575 35,000  Climbing Minneapolis Center
Thu 03:02:55 AM 46.3628 -86.7978 121° Southeast 497 572 34,900  Descending Minneapolis Center
Thu 03:03:55 AM 46.2925 -86.6286 121° Southeast 493 567 35,000 50 Climbing Minneapolis Center
Thu 03:04:56 AM 46.2231 -86.4603 121° Southeast 488 562 35,000  Level Minneapolis Center
Thu 03:05:56 AM 46.1550 -86.2936 120° Southeast 483 556 35,000  Level Minneapolis Center
Thu 03:06:57 AM 46.0856 -86.1303 121° Southeast 479 551 35,000  Level Minneapolis Center
Thu 03:07:57 AM 46.0161 -85.9678 122° Southeast 477 549 35,000  Level Minneapolis Center
Thu 03:08:57 AM 45.9492 -85.8075 121° Southeast 469 540 35,000  Level Minneapolis Center
Thu 03:11:00 AM 45.8552 -85.5868 121° Southeast  Level FlightAware Approximate
Thu 03:11:48 AM 45.7167 -85.3000 121° Southeast 460 529 35,000  Level Winnipeg Center
Thu 03:12:32 AM 45.7000 -85.2500 115° Southeast 460 529 35,000  Level Toronto Center
Thu 03:13:32 AM 45.6167 -85.0667 123° Southeast 470 541 35,000  Level Toronto Center
Thu 03:14:32 AM 45.5500 -84.9167 122° Southeast 480 552 35,000  Level Toronto Center
Thu 03:15:32 AM 45.4667 -84.7500 125° Southeast 480 552 35,000  Level Toronto Center
Thu 03:16:32 AM 45.4167 -84.6000 115° Southeast 480 552 35,000  Level Toronto Center
Thu 03:17:32 AM 45.3333 -84.4167 123° Southeast 490 564 35,000  Level Toronto Center
Thu 03:18:02 AM 45.3203 -84.3697 112° Southeast 485 558 35,000  Level Minneapolis Center
Thu 03:19:02 AM 45.2478 -84.2083 122° Southeast 484 557 35,000  Level Minneapolis Center
Thu 03:20:02 AM 45.1747 -84.0464 123° Southeast 486 559 35,000  Level Minneapolis Center
Thu 03:21:03 AM 45.1022 -83.8858 123° Southeast 484 557 35,000  Level Minneapolis Center
Thu 03:22:03 AM 45.0286 -83.7250 123° Southeast 486 559 35,000 -50 Level Minneapolis Center
Thu 03:23:04 AM 44.9556 -83.5647 123° Southeast 486 559 34,900  Descending Minneapolis Center
Thu 03:24:04 AM 44.8822 -83.4056 123° Southeast 486 559 35,000 50 Climbing Minneapolis Center
Thu 03:25:05 AM 44.8092 -83.2481 123° Southeast 482 555 35,000  Level Minneapolis Center
Thu 03:26:05 AM 44.7350 -83.0897 123° Southeast 484 557 35,000  Level Minneapolis Center
Thu 03:27:06 AM 44.6619 -82.9328 123° Southeast 482 555 35,000  Level Minneapolis Center
Thu 03:28:06 AM 44.5886 -82.7761 123° Southeast 482 555 35,000  Level Minneapolis Center
Thu 03:29:06 AM 44.5139 -82.6186 124° Southeast 484 557 35,000  Level Minneapolis Center
Thu 03:30:07 AM 44.4392 -82.4622 124° Southeast 485 558 35,000  Level Minneapolis Center
Thu 03:31:32 AM 44.3000 -82.2000 126° Southeast 480 552 35,000  Level Toronto Center
Thu 03:32:32 AM 44.2333 -82.0500 122° Southeast 480 552 35,000 -350 Level Toronto Center
Thu 03:33:32 AM 44.1667 -81.9167 125° Southeast 480 552 34,300 -1,750 Descending Toronto Center
Thu 03:34:32 AM 44.0833 -81.7500 125° Southeast 460 529 31,500 -2,900 Descending Toronto Center
Thu 03:35:32 AM 44.0167 -81.6000 122° Southeast 460 529 28,500 -2,900 Descending Toronto Center
Thu 03:36:32 AM 43.9333 -81.4667 131° Southeast 460 529 25,700 -2,750 Descending Toronto Center
Thu 03:37:32 AM 43.8667 -81.3167 122° Southeast 450 518 23,000 -2,650 Descending Toronto Center
Thu 03:38:32 AM 43.7833 -81.1833 131° Southeast 440 506 20,400 -2,200 Descending Toronto Center
Thu 03:39:32 AM 43.7167 -81.0667 128° Southeast 410 472 18,600 -1,900 Descending Toronto Center
Thu 03:40:32 AM 43.6667 -80.9500 121° Southeast 390 449 16,600 -1,950 Descending Toronto Center
Thu 03:41:32 AM 43.6000 -80.8333 128° Southeast 370 426 14,700 -1,800 Descending Toronto Center
Thu 03:42:32 AM 43.5500 -80.7167 121° Southeast 350 403 13,000 -1,800 Descending Toronto Center
Thu 03:43:32 AM 43.5000 -80.6167 125° Southeast 330 380 11,100 -1,600 Descending Toronto Center
Thu 03:44:32 AM 43.4500 -80.5333 130° Southeast 300 345 9,800 -1,350 Descending Toronto Center
Thu 03:45:32 AM 43.4000 -80.4333 125° Southeast 280 322 8,400 -1,400 Descending Toronto Center
Thu 03:46:32 AM 43.3500 -80.3667 136° Southeast 270 311 7,000 -1,400 Descending Toronto Center
Thu 03:47:32 AM 43.3000 -80.2667 124° Southeast 260 299 5,600 -1,350 Descending Toronto Center
Thu 03:48:32 AM 43.2667 -80.2000 124° Southeast 250 288 4,300 -1,150 Descending Toronto Center
Thu 03:49:32 AM 43.2167 -80.1333 136° Southeast 250 288 3,300 -850 Descending Toronto Center
Thu 03:50:32 AM 43.2000 -80.0500 105° East 240 276 2,600 -850 Descending Toronto Center
Thu 03:51:32 AM 43.1833 -79.9833 109° East 200 230 1,600 -850 Descending Toronto Center
Thu 03:52:32 AM 43.1667 -79.9333 115° Southeast 160 184 900 -700 Descending Toronto Center
Thu 03:54:00 AM 43.1731 -79.9350 North  Level Estimated

Login

Don't have an account? Register now (free) for customized features, flight alerts, and more!